MST,Max TemperatureF,Mean TemperatureF,Min TemperatureF,Max Dew PointF,MeanDew PointF,Min DewpointF,Max Humidity, Mean Humidity, Min Humidity, Max Sea Level PressureIn, Mean Sea Level PressureIn, Min Sea Level PressureIn, Max VisibilityMiles, Mean VisibilityMiles, Min VisibilityMiles, Max Wind SpeedMPH, Mean Wind SpeedMPH, Max Gust SpeedMPH,PrecipitationIn, CloudCover, Events, WindDirDegrees
2012-11-1,61,48,34,34,31,28,76,53,29,30.11,30.01,29.94,10,10,10,7,3,12,0.00,0,,282
2012-11-2,61,49,36,32,29,25,70,48,25,30.12,30.03,29.96,10,10,10,8,3,,0.00,1,,307
2012-11-3,59,45,30,30,27,23,85,56,27,30.25,30.19,30.10,10,10,10,6,3,,0.00,0,,276
2012-11-4,57,45,32,30,28,26,75,54,32,30.38,30.32,30.23,10,10,10,6,2,,0.00,0,,282
2012-11-5,60,45,30,32,29,26,78,53,28,30.42,30.34,30.26,10,10,10,8,2,9,0.00,0,,274
2012-11-6,61,46,31,32,29,26,82,57,32,30.39,30.29,30.21,10,10,10,8,3,9,0.00,0,,281
2012-11-7,61,46,30,31,28,24,78,54,29,30.24,30.11,29.95,10,10,10,8,3,9,0.00,0,,279
2012-11-8,62,47,31,31,26,21,72,47,22,29.95,29.79,29.61,10,10,10,18,5,24,0.00,2,,239
2012-11-9,58,49,39,41,35,27,83,59,35,29.61,29.49,29.36,10,10,8,37,13,49,0.11,7,Rain-Thunderstorm,217
2012-11-10,41,32,22,27,23,16,88,71,54,29.97,29.71,29.48,10,8,1,23,6,30,T,6,Snow,349
2012-11-11,36,27,18,19,10,0,77,50,22,30.50,30.22,29.99,10,10,10,20,5,25,0.00,2,,276
2012-11-12,34,24,13,19,11,7,69,52,35,30.64,30.54,30.45,10,10,10,6,2,9,0.00,1,,309
2012-11-13,44,32,19,20,15,11,77,52,27,30.51,30.42,30.36,10,10,10,9,3,10,0.00,1,,288
2012-11-14,46,34,22,23,19,16,81,57,33,30.43,30.33,30.24,10,10,8,8,2,10,0.00,0,,280
2012-11-15,49,36,22,23,21,17,84,59,34,30.43,30.35,30.30,10,10,10,8,2,10,0.00,0,,293
2012-11-16,46,35,23,27,23,19,81,59,37,30.32,30.24,30.16,10,10,10,9,2,10,T,4,,265
2012-11-17,50,42,34,37,35,30,92,77,61,30.22,30.13,30.04,10,10,6,9,3,13,0.05,7,Rain,294
2012-11-18,54,43,31,39,35,30,96,73,50,30.15,30.07,30.01,10,10,6,13,3,18,T,6,,266
2012-11-19,53,42,30,36,31,27,89,65,41,30.34,30.27,30.17,10,10,8,8,3,10,0.00,0,,290
2012-11-20,53,40,26,32,28,23,85,63,41,30.41,30.28,30.19,10,10,10,7,3,8,0.00,0,,294
2012-11-21,55,41,26,31,27,24,85,60,35,30.21,30.11,30.01,10,10,10,9,3,12,0.00,0,,277
2012-11-22,53,40,27,30,26,23,78,58,38,30.45,30.28,30.06,10,10,10,8,3,12,0.00,0,,287
2012-11-23,50,37,23,23,21,17,81,55,29,30.58,30.49,30.41,10,10,10,7,3,8,0.00,0,,276
2012-11-24,51,37,22,24,21,18,81,55,29,30.42,30.28,30.11,10,10,10,8,3,10,0.00,0,,277
2012-11-25,48,34,20,23,19,15,81,56,31,30.12,30.05,29.95,10,10,10,13,3,24,0.00,1,,295
2012-11-26,46,35,23,22,19,14,75,56,37,30.34,30.26,30.06,10,10,10,9,5,15,0.00,0,,288
2012-11-27,48,34,19,22,19,14,84,59,34,30.45,30.38,30.30,10,10,10,7,3,8,0.00,0,,285
2012-11-28,45,33,20,23,19,15,84,61,37,30.44,30.32,30.19,10,10,10,6,2,7,0.00,0,,284
2012-11-29,44,34,23,24,21,18,81,60,39,30.28,30.20,30.14,10,10,10,7,2,8,0.00,1,,294
2012-11-30,50,38,25,32,25,20,81,60,39,30.16,30.07,29.98,10,10,10,8,2,9,T,2,,294